Time;durP1;ratioP1;P1;durP2;ratioP2;P2;SDS_P1;SDS_P2;PMS_P1;PMS_P2;Temp;Humidity;BMP_temperature;BMP_pressure;BME280_temperature;BME280_humidity;BME280_pressure;Samples;Min_cycle;Max_cycle;Signal;HPM_P1;HPM_P2
2022/01/29 00:00:24;;;;;;;;;;;12.70;99.90;;;;;;5033398;28;19917;-76
2022/01/29 00:02:50;;;;;;;;;;;12.60;99.90;;;;;;5033620;28;20389;-79
2022/01/29 00:05:15;;;;;;;;;;;12.70;99.90;;;;;;5031904;28;20317;-78
2022/01/29 00:07:42;;;;;;;;;;;12.70;99.90;;;;;;5033716;28;19905;-79
2022/01/29 00:10:09;;;;;;;;;;;12.60;99.90;;;;;;5032464;28;20255;-79
2022/01/29 00:12:34;;;;;;;;;;;12.60;99.90;;;;;;5032706;28;19909;-79
2022/01/29 00:15:00;;;;;;;;;;;12.60;99.90;;;;;;5031491;28;20462;-79
2022/01/29 00:17:26;;;;;;;;;;;12.60;99.90;;;;;;5032952;28;19942;-79
2022/01/29 00:19:52;;;;;;;;;;;12.60;99.90;;;;;;5031536;28;19913;-77
2022/01/29 00:22:17;;;;;;;;;;;12.60;99.90;;;;;;5033336;28;19912;-78
2022/01/29 00:24:43;;;;;;;;;;;12.60;99.90;;;;;;5016669;28;19913;-77
2022/01/29 00:27:10;;;;;;;;;;;12.60;99.90;;;;;;5034013;28;20367;-78
2022/01/29 00:29:38;;;;;;;;;;;12.60;99.90;;;;;;5032589;28;19905;-79
2022/01/29 00:32:08;;;;;;;;;;;12.60;99.90;;;;;;5033362;28;20009;-79
2022/01/29 00:34:34;;;;;;;;;;;12.60;99.90;;;;;;5033269;28;19905;-78
2022/01/29 00:36:59;;;;;;;;;;;12.50;99.90;;;;;;5033543;28;20239;-78
2022/01/29 00:39:25;;;;;;;;;;;12.50;99.90;;;;;;5033620;28;19909;-79
2022/01/29 00:41:50;;;;;;;;;;;12.50;99.90;;;;;;5032446;28;20347;-79
2022/01/29 00:44:16;;;;;;;;;;;12.50;99.90;;;;;;5032990;28;19968;-78
2022/01/29 00:46:42;;;;;;;;;;;12.40;99.90;;;;;;5033766;28;19909;-77
2022/01/29 00:49:08;;;;;;;;;;;12.40;99.90;;;;;;5032420;28;19924;-77
2022/01/29 00:51:34;;;;;;;;;;;12.40;99.90;;;;;;5032347;28;19917;-79
2022/01/29 00:54:00;;;;;;;;;;;12.30;99.90;;;;;;5033498;28;19905;-80
2022/01/29 00:56:25;;;;;;;;;;;12.30;99.90;;;;;;5030083;28;19952;-78
2022/01/29 00:58:52;;;;;;;;;;;12.30;99.90;;;;;;5031588;28;19921;-79
2022/01/29 01:01:18;;;;;;;;;;;12.30;99.90;;;;;;5030381;28;19921;-77
2022/01/29 01:03:43;;;;;;;;;;;12.20;99.90;;;;;;5031897;28;20008;-77
2022/01/29 01:06:09;;;;;;;;;;;12.20;99.90;;;;;;5014123;28;19916;-77
2022/01/29 01:08:35;;;;;;;;;;;12.20;99.90;;;;;;5029428;28;19919;-79
2022/01/29 01:11:02;;;;;;;;;;;12.20;99.90;;;;;;5031939;28;20393;-77
2022/01/29 01:13:28;;;;;;;;;;;12.20;99.90;;;;;;5031489;28;19905;-80
2022/01/29 01:15:53;;;;;;;;;;;12.20;99.90;;;;;;5031568;28;19909;-81
2022/01/29 01:18:19;;;;;;;;;;;12.30;99.90;;;;;;5032921;28;19909;-77
2022/01/29 01:20:44;;;;;;;;;;;12.30;99.90;;;;;;5015599;28;20275;-78
2022/01/29 01:23:10;;;;;;;;;;;12.30;99.90;;;;;;5032636;28;19912;-78
2022/01/29 01:25:35;;;;;;;;;;;12.40;99.90;;;;;;5015206;28;19956;-79
2022/01/29 01:28:01;;;;;;;;;;;12.40;99.90;;;;;;5033667;28;19905;-77
2022/01/29 01:30:26;;;;;;;;;;;12.40;99.90;;;;;;5034087;28;19932;-77
2022/01/29 01:32:52;;;;;;;;;;;12.40;99.90;;;;;;5033890;28;19909;-79
2022/01/29 01:35:23;;;;;;;;;;;12.40;99.90;;;;;;5031736;28;20374;-78
2022/01/29 01:37:57;;;;;;;;;;;12.50;99.90;;;;;;5033083;28;19963;-78
2022/01/29 01:40:24;;;;;;;;;;;12.50;99.90;;;;;;5031486;28;19931;-78
2022/01/29 01:42:53;;;;;;;;;;;12.40;99.90;;;;;;5032365;28;19905;-78
2022/01/29 01:45:18;;;;;;;;;;;12.50;99.90;;;;;;5016573;28;19912;-77
2022/01/29 01:47:44;;;;;;;;;;;12.50;99.90;;;;;;5031729;28;19924;-78
2022/01/29 01:50:09;;;;;;;;;;;12.40;99.90;;;;;;5033553;28;19913;-77
2022/01/29 01:52:35;;;;;;;;;;;12.50;99.90;;;;;;5031405;28;19905;-78
2022/01/29 01:55:01;;;;;;;;;;;12.50;99.90;;;;;;5029038;28;20012;-77
2022/01/29 01:57:26;;;;;;;;;;;12.50;99.90;;;;;;5030467;28;19929;-79
2022/01/29 01:59:52;;;;;;;;;;;12.60;99.90;;;;;;5029541;28;19929;-80
2022/01/29 02:02:17;;;;;;;;;;;12.60;99.90;;;;;;5030361;28;19971;-77
2022/01/29 02:04:43;;;;;;;;;;;12.60;99.90;;;;;;5013611;28;20011;-77
2022/01/29 02:07:09;;;;;;;;;;;12.60;99.90;;;;;;5031150;28;19944;-78
2022/01/29 02:09:37;;;;;;;;;;;12.60;99.90;;;;;;5030973;28;20314;-80
2022/01/29 02:12:04;;;;;;;;;;;12.70;99.90;;;;;;5029614;28;19967;-79
2022/01/29 02:14:32;;;;;;;;;;;12.70;99.90;;;;;;5029303;28;19912;-78
2022/01/29 02:16:59;;;;;;;;;;;12.80;99.90;;;;;;5013616;28;20325;-77
2022/01/29 02:19:25;;;;;;;;;;;12.80;99.90;;;;;;5031713;28;20288;-79
2022/01/29 02:21:50;;;;;;;;;;;12.80;99.90;;;;;;5032231;28;19912;-78
2022/01/29 02:24:16;;;;;;;;;;;12.80;99.90;;;;;;5030927;28;19909;-77
2022/01/29 02:26:41;;;;;;;;;;;12.90;99.90;;;;;;5030769;28;20343;-78
2022/01/29 02:29:07;;;;;;;;;;;12.90;99.90;;;;;;5031971;28;19920;-80
2022/01/29 02:31:33;;;;;;;;;;;12.90;99.90;;;;;;5028328;28;20011;-78
2022/01/29 02:33:58;;;;;;;;;;;12.90;99.90;;;;;;5011757;28;19913;-77
2022/01/29 02:36:24;;;;;;;;;;;12.90;99.90;;;;;;5012130;28;20012;-77
2022/01/29 02:38:50;;;;;;;;;;;12.90;99.90;;;;;;5029144;28;19921;-79
2022/01/29 02:41:15;;;;;;;;;;;13.00;99.90;;;;;;5029417;28;19909;-79
2022/01/29 02:43:46;;;;;;;;;;;13.00;99.90;;;;;;5011693;28;19909;-78
2022/01/29 02:48:44;;;;;;;;;;;13.00;99.90;;;;;;5029306;28;19959;-77
2022/01/29 02:51:09;;;;;;;;;;;13.00;99.90;;;;;;5011745;28;19909;-80
2022/01/29 02:53:35;;;;;;;;;;;13.00;99.90;;;;;;5028382;28;19920;-78
2022/01/29 02:56:00;;;;;;;;;;;13.00;99.90;;;;;;5012160;28;19910;-80
2022/01/29 02:58:26;;;;;;;;;;;13.00;99.90;;;;;;5028557;28;19975;-77
2022/01/29 03:00:52;;;;;;;;;;;13.00;99.90;;;;;;5028654;28;19936;-80
2022/01/29 03:03:18;;;;;;;;;;;13.00;99.90;;;;;;5028473;28;19905;-78
2022/01/29 03:05:43;;;;;;;;;;;13.00;99.90;;;;;;5028871;28;19913;-79
2022/01/29 03:08:09;;;;;;;;;;;13.00;99.90;;;;;;5029084;28;19909;-77
2022/01/29 03:10:34;;;;;;;;;;;13.00;99.90;;;;;;5029128;28;20405;-77
2022/01/29 03:13:00;;;;;;;;;;;13.00;99.90;;;;;;5028395;28;19905;-77
2022/01/29 03:15:26;;;;;;;;;;;13.00;99.90;;;;;;5028776;28;20346;-80
2022/01/29 03:17:51;;;;;;;;;;;13.00;99.90;;;;;;5030109;28;19967;-77
2022/01/29 03:20:17;;;;;;;;;;;13.00;99.90;;;;;;5029805;28;19909;-77
2022/01/29 03:22:42;;;;;;;;;;;13.00;99.90;;;;;;5013827;28;19913;-80
2022/01/29 03:25:08;;;;;;;;;;;13.00;99.90;;;;;;5032287;28;19975;-76
2022/01/29 03:27:34;;;;;;;;;;;13.00;99.90;;;;;;5030212;28;19909;-79
2022/01/29 03:29:59;;;;;;;;;;;13.00;99.90;;;;;;5031825;28;20140;-77
2022/01/29 03:32:25;;;;;;;;;;;13.00;99.90;;;;;;5032904;28;19905;-77
2022/01/29 03:34:50;;;;;;;;;;;13.00;99.90;;;;;;5030642;28;19964;-76
2022/01/29 03:37:16;;;;;;;;;;;13.00;99.90;;;;;;5031140;28;19959;-78
2022/01/29 03:39:43;;;;;;;;;;;13.00;99.90;;;;;;5013153;28;20252;-77
2022/01/29 03:42:10;;;;;;;;;;;13.00;99.90;;;;;;5030873;28;19909;-78
2022/01/29 03:44:36;;;;;;;;;;;13.00;99.90;;;;;;5030091;28;19905;-78
2022/01/29 03:47:02;;;;;;;;;;;13.00;99.90;;;;;;5029742;28;19928;-78
2022/01/29 03:49:27;;;;;;;;;;;13.00;99.90;;;;;;5029612;28;19916;-79
2022/01/29 03:51:53;;;;;;;;;;;13.00;99.90;;;;;;5028965;28;19937;-77
2022/01/29 03:54:18;;;;;;;;;;;13.00;99.90;;;;;;5028806;28;19913;-77
2022/01/29 03:56:44;;;;;;;;;;;13.00;99.90;;;;;;5031306;28;20310;-76
2022/01/29 03:59:09;;;;;;;;;;;13.00;99.90;;;;;;5016375;28;19917;-79
2022/01/29 04:01:35;;;;;;;;;;;12.90;99.90;;;;;;5032583;28;20008;-78
2022/01/29 04:04:00;;;;;;;;;;;12.90;99.90;;;;;;5032364;28;19909;-78
2022/01/29 04:06:26;;;;;;;;;;;13.00;99.90;;;;;;5033668;28;20294;-79
2022/01/29 04:08:52;;;;;;;;;;;12.90;99.90;;;;;;5033684;28;19997;-77
2022/01/29 04:11:18;;;;;;;;;;;12.90;99.90;;;;;;5032749;28;19958;-78
2022/01/29 04:13:46;;;;;;;;;;;13.00;99.90;;;;;;5033614;28;19909;-79
2022/01/29 04:16:12;;;;;;;;;;;13.00;99.90;;;;;;5032664;28;19911;-78
2022/01/29 04:18:38;;;;;;;;;;;13.00;99.90;;;;;;5032563;28;19961;-78
2022/01/29 04:21:04;;;;;;;;;;;13.00;99.90;;;;;;5033776;28;19905;-78
2022/01/29 04:23:30;;;;;;;;;;;12.90;99.90;;;;;;5035478;28;19948;-80
2022/01/29 04:25:56;;;;;;;;;;;13.00;99.90;;;;;;5035255;28;19905;-77
2022/01/29 04:28:29;;;;;;;;;;;13.00;99.90;;;;;;5035272;28;19905;-76
2022/01/29 04:31:00;;;;;;;;;;;13.00;99.90;;;;;;5018062;28;19913;-78
2022/01/29 04:35:51;;;;;;;;;;;13.00;99.90;;;;;;5034404;28;19959;-78
2022/01/29 04:38:18;;;;;;;;;;;13.00;99.90;;;;;;5032509;28;19905;-77
2022/01/29 04:40:44;;;;;;;;;;;13.00;99.90;;;;;;5033624;28;19909;-78
2022/01/29 04:43:09;;;;;;;;;;;13.00;99.90;;;;;;5033700;28;20441;-79
2022/01/29 04:45:35;;;;;;;;;;;13.00;99.90;;;;;;5034708;28;19905;-77
2022/01/29 04:48:01;;;;;;;;;;;13.00;99.90;;;;;;5031722;28;19917;-79
2022/01/29 04:50:26;;;;;;;;;;;13.00;99.90;;;;;;5032669;28;19912;-81
2022/01/29 04:52:52;;;;;;;;;;;13.00;99.90;;;;;;5031032;28;19909;-78
2022/01/29 04:55:17;;;;;;;;;;;13.00;99.90;;;;;;5032081;28;19912;-78
2022/01/29 04:57:43;;;;;;;;;;;13.00;99.90;;;;;;5033575;28;20371;-80
2022/01/29 05:00:11;;;;;;;;;;;13.00;99.90;;;;;;5034527;28;19913;-78
2022/01/29 05:02:37;;;;;;;;;;;13.00;99.90;;;;;;5034585;28;19905;-79
2022/01/29 05:05:03;;;;;;;;;;;13.00;99.90;;;;;;5016394;28;20534;-78
2022/01/29 05:07:29;;;;;;;;;;;13.00;99.90;;;;;;5031948;28;19905;-78
2022/01/29 05:09:55;;;;;;;;;;;13.10;99.90;;;;;;5030703;28;20286;-78
2022/01/29 05:12:26;;;;;;;;;;;13.00;99.90;;;;;;5032849;28;19909;-78
2022/01/29 05:15:23;;;;;;;;;;;13.00;99.90;;;;;;5034353;28;20245;-78
2022/01/29 05:28:51;;;;;;;;;;;13.00;99.80;;;;;;5029781;28;19996;-78
2022/01/29 05:31:16;;;;;;;;;;;13.00;99.80;;;;;;5034468;28;19928;-79
2022/01/29 05:33:42;;;;;;;;;;;13.10;99.80;;;;;;5034044;28;19948;-78
2022/01/29 05:36:07;;;;;;;;;;;13.10;99.70;;;;;;5034130;28;20374;-80
2022/01/29 05:38:34;;;;;;;;;;;13.10;99.60;;;;;;5032771;28;19912;-79
2022/01/29 05:40:59;;;;;;;;;;;13.10;99.60;;;;;;5031487;28;19905;-77
2022/01/29 05:43:25;;;;;;;;;;;13.10;99.60;;;;;;5033434;28;19924;-79
2022/01/29 05:45:50;;;;;;;;;;;13.10;99.60;;;;;;5032634;28;19916;-77
2022/01/29 05:48:16;;;;;;;;;;;13.20;99.50;;;;;;5033088;28;19924;-78
2022/01/29 05:50:42;;;;;;;;;;;13.10;99.50;;;;;;5033452;28;19909;-78
2022/01/29 05:53:07;;;;;;;;;;;13.10;99.50;;;;;;5032066;28;20270;-79
2022/01/29 05:55:33;;;;;;;;;;;13.20;99.40;;;;;;5013951;28;19913;-78
2022/01/29 05:57:58;;;;;;;;;;;13.20;99.40;;;;;;5030674;28;19920;-81
2022/01/29 06:00:24;;;;;;;;;;;13.20;99.40;;;;;;5013947;28;19952;-78
2022/01/29 06:03:00;;;;;;;;;;;13.20;99.50;;;;;;5029624;28;20371;-77
2022/01/29 06:05:25;;;;;;;;;;;13.20;99.40;;;;;;5031955;28;19905;-78
2022/01/29 06:07:51;;;;;;;;;;;13.20;99.40;;;;;;5030416;28;20318;-78
2022/01/29 06:10:17;;;;;;;;;;;13.20;99.40;;;;;;5030885;28;19913;-78
2022/01/29 06:12:43;;;;;;;;;;;13.20;99.40;;;;;;5031189;28;19913;-79
2022/01/29 06:15:08;;;;;;;;;;;13.20;99.40;;;;;;5031257;28;19904;-78
2022/01/29 06:17:34;;;;;;;;;;;13.20;99.40;;;;;;5033471;28;20168;-78
2022/01/29 06:19:59;;;;;;;;;;;13.20;99.40;;;;;;5033148;28;19966;-78
2022/01/29 06:22:26;;;;;;;;;;;13.20;99.30;;;;;;5033042;28;19909;-79
2022/01/29 06:24:51;;;;;;;;;;;13.20;99.30;;;;;;5032207;28;19909;-78
2022/01/29 06:27:17;;;;;;;;;;;13.20;99.30;;;;;;5031837;28;19936;-78
2022/01/29 06:29:43;;;;;;;;;;;13.30;99.20;;;;;;5032729;28;20347;-78
2022/01/29 06:32:08;;;;;;;;;;;13.20;99.20;;;;;;5031565;28;19905;-77
2022/01/29 06:34:34;;;;;;;;;;;13.20;99.20;;;;;;5030972;28;20003;-80
2022/01/29 06:36:59;;;;;;;;;;;13.30;99.10;;;;;;5030377;28;19959;-77
2022/01/29 06:39:25;;;;;;;;;;;13.20;99.10;;;;;;5030332;28;19922;-80
2022/01/29 06:41:50;;;;;;;;;;;13.20;99.10;;;;;;5031769;28;19929;-77
2022/01/29 06:44:16;;;;;;;;;;;13.20;99.10;;;;;;5030748;28;19982;-79
2022/01/29 06:46:41;;;;;;;;;;;13.20;99.00;;;;;;5031926;28;19908;-78
2022/01/29 06:49:07;;;;;;;;;;;13.30;99.00;;;;;;5012496;28;19921;-79
2022/01/29 06:51:33;;;;;;;;;;;13.30;99.00;;;;;;5029494;28;20267;-77
2022/01/29 06:53:58;;;;;;;;;;;13.30;98.90;;;;;;5013227;28;19936;-80
2022/01/29 06:56:24;;;;;;;;;;;13.30;98.90;;;;;;5031818;28;19971;-80
2022/01/29 06:58:49;;;;;;;;;;;13.30;98.90;;;;;;5029591;28;19913;-78
2022/01/29 07:01:15;;;;;;;;;;;13.30;99.00;;;;;;5030388;28;19984;-77
2022/01/29 07:03:40;;;;;;;;;;;13.30;99.00;;;;;;5030440;28;19963;-78
2022/01/29 07:06:06;;;;;;;;;;;13.30;99.00;;;;;;5030343;28;19951;-77
2022/01/29 07:08:37;;;;;;;;;;;13.30;99.10;;;;;;5030036;28;19909;-79
2022/01/29 07:11:02;;;;;;;;;;;13.20;99.20;;;;;;5029873;28;20002;-78
2022/01/29 07:13:28;;;;;;;;;;;13.20;99.30;;;;;;5029833;28;19951;-77
2022/01/29 07:15:53;;;;;;;;;;;13.20;99.50;;;;;;5029961;28;20323;-78
2022/01/29 07:18:19;;;;;;;;;;;13.20;99.60;;;;;;5028075;28;19928;-78
2022/01/29 07:20:46;;;;;;;;;;;13.10;99.80;;;;;;5028876;28;19909;-78
2022/01/29 07:23:12;;;;;;;;;;;13.10;99.90;;;;;;5028456;28;20367;-80
2022/01/29 07:25:37;;;;;;;;;;;13.00;99.90;;;;;;5012621;28;19963;-78
2022/01/29 07:28:03;;;;;;;;;;;13.00;99.90;;;;;;5029882;28;20271;-80
2022/01/29 07:30:29;;;;;;;;;;;13.00;99.90;;;;;;5030087;28;19990;-77
2022/01/29 07:32:54;;;;;;;;;;;13.00;99.90;;;;;;5032221;28;20067;-79
2022/01/29 07:35:20;;;;;;;;;;;12.90;99.90;;;;;;5033751;28;19916;-81
2022/01/29 07:37:45;;;;;;;;;;;12.90;99.90;;;;;;5034389;28;19992;-76
2022/01/29 07:40:11;;;;;;;;;;;12.80;99.90;;;;;;5032488;28;19913;-79
2022/01/29 07:42:37;;;;;;;;;;;12.80;99.90;;;;;;5032185;28;19905;-79
2022/01/29 07:45:02;;;;;;;;;;;12.70;99.90;;;;;;5034181;28;20349;-78
2022/01/29 07:47:28;;;;;;;;;;;12.70;99.90;;;;;;5032170;28;19956;-78
2022/01/29 07:49:54;;;;;;;;;;;12.70;99.90;;;;;;5033916;28;19916;-77
2022/01/29 07:52:19;;;;;;;;;;;12.60;99.90;;;;;;5033679;28;19916;-79
2022/01/29 07:54:45;;;;;;;;;;;12.60;99.90;;;;;;5031788;28;20013;-78
2022/01/29 07:57:10;;;;;;;;;;;12.60;99.90;;;;;;5032168;28;19935;-78
2022/01/29 07:59:36;;;;;;;;;;;12.60;99.90;;;;;;5032483;28;19924;-78
2022/01/29 08:02:01;;;;;;;;;;;12.60;99.90;;;;;;5015745;28;20171;-78
2022/01/29 08:04:27;;;;;;;;;;;12.60;99.90;;;;;;5015689;28;20019;-78
2022/01/29 08:06:52;;;;;;;;;;;12.70;99.90;;;;;;5015040;28;19910;-77
2022/01/29 08:09:18;;;;;;;;;;;12.60;99.90;;;;;;5031509;28;19913;-78
2022/01/29 08:11:44;;;;;;;;;;;12.60;99.90;;;;;;5033750;28;20370;-78
2022/01/29 08:14:09;;;;;;;;;;;12.60;99.90;;;;;;5032406;28;19989;-77
2022/01/29 08:16:35;;;;;;;;;;;12.60;99.90;;;;;;5032926;28;19974;-78
2022/01/29 08:19:04;;;;;;;;;;;12.60;99.90;;;;;;5034451;28;19909;-78
2022/01/29 08:21:29;;;;;;;;;;;12.50;99.90;;;;;;5033453;28;19916;-77
2022/01/29 08:23:55;;;;;;;;;;;12.50;99.90;;;;;;5035161;28;19918;-77
2022/01/29 08:26:20;;;;;;;;;;;12.50;99.90;;;;;;5032845;28;19911;-78
2022/01/29 08:28:46;;;;;;;;;;;12.50;99.90;;;;;;5032018;28;19915;-77
2022/01/29 08:31:11;;;;;;;;;;;12.50;99.90;;;;;;5033287;28;19941;-77
2022/01/29 08:33:38;;;;;;;;;;;12.50;99.90;;;;;;5032178;28;20360;-77
2022/01/29 08:36:04;;;;;;;;;;;12.50;99.90;;;;;;5031492;28;19957;-78
2022/01/29 08:38:29;;;;;;;;;;;12.50;99.90;;;;;;5032873;28;19911;-80
2022/01/29 08:40:55;;;;;;;;;;;12.50;99.90;;;;;;5031395;28;19976;-78
2022/01/29 08:43:22;;;;;;;;;;;12.60;99.90;;;;;;5032438;28;19931;-78
2022/01/29 08:45:48;;;;;;;;;;;12.50;99.90;;;;;;5033519;28;19909;-77
2022/01/29 08:48:14;;;;;;;;;;;12.50;99.90;;;;;;5032769;28;19917;-79
2022/01/29 08:50:40;;;;;;;;;;;12.60;99.90;;;;;;5016357;28;19916;-78
2022/01/29 08:53:06;;;;;;;;;;;12.60;99.90;;;;;;5030398;28;19934;-78
2022/01/29 08:55:36;;;;;;;;;;;12.60;99.90;;;;;;5030465;28;20351;-80
2022/01/29 08:58:03;;;;;;;;;;;12.60;99.90;;;;;;5030665;28;19916;-78
2022/01/29 09:00:28;;;;;;;;;;;12.60;99.90;;;;;;5030668;28;19952;-80
2022/01/29 09:02:54;;;;;;;;;;;12.70;99.90;;;;;;5032226;28;19990;-78
2022/01/29 09:05:20;;;;;;;;;;;12.70;99.90;;;;;;5031976;28;19912;-78
2022/01/29 09:07:47;;;;;;;;;;;12.70;99.90;;;;;;5033991;28;20382;-79
2022/01/29 09:10:13;;;;;;;;;;;12.80;99.90;;;;;;5014578;28;19916;-80
2022/01/29 09:12:39;;;;;;;;;;;12.80;99.90;;;;;;5033523;28;19905;-78
2022/01/29 09:15:05;;;;;;;;;;;12.80;99.90;;;;;;5030681;28;19912;-77
2022/01/29 09:17:30;;;;;;;;;;;12.90;99.90;;;;;;5029429;28;19964;-67
2022/01/29 09:19:56;;;;;;;;;;;12.90;99.90;;;;;;5030716;28;19952;-78
2022/01/29 09:22:25;;;;;;;;;;;12.90;99.90;;;;;;5031321;28;20421;-78
2022/01/29 09:24:50;;;;;;;;;;;12.90;99.90;;;;;;5031825;28;19954;-78
2022/01/29 09:27:16;;;;;;;;;;;12.90;99.90;;;;;;5033231;28;20382;-77
2022/01/29 09:29:43;;;;;;;;;;;12.90;99.90;;;;;;5015857;28;20031;-78
2022/01/29 09:32:08;;;;;;;;;;;12.80;99.90;;;;;;5032115;28;19958;-78
2022/01/29 09:34:34;;;;;;;;;;;12.80;99.90;;;;;;5032337;28;19912;-77
2022/01/29 09:36:59;;;;;;;;;;;12.90;99.90;;;;;;5032629;28;20436;-79
2022/01/29 09:39:25;;;;;;;;;;;12.90;99.90;;;;;;5031850;28;19920;-77
2022/01/29 09:41:50;;;;;;;;;;;13.00;99.90;;;;;;5015376;28;19909;-78
2022/01/29 09:44:16;;;;;;;;;;;12.90;99.90;;;;;;5031665;28;20373;-79
2022/01/29 09:46:44;;;;;;;;;;;12.90;99.90;;;;;;5032456;28;20271;-78
2022/01/29 09:49:10;;;;;;;;;;;12.90;99.90;;;;;;5034016;28;19916;-79
2022/01/29 09:51:37;;;;;;;;;;;12.90;99.90;;;;;;5031166;28;19912;-79
2022/01/29 09:54:02;;;;;;;;;;;12.90;99.90;;;;;;5032552;28;19904;-78
2022/01/29 09:56:28;;;;;;;;;;;13.00;99.90;;;;;;5030614;28;19913;-77
2022/01/29 09:58:54;;;;;;;;;;;13.00;99.90;;;;;;5032853;28;19917;-78
2022/01/29 10:01:20;;;;;;;;;;;12.90;99.90;;;;;;5032131;28;19963;-77
2022/01/29 10:04:05;;;;;;;;;;;12.70;99.70;;;;;;5031341;28;19916;-77
2022/01/29 10:06:31;;;;;;;;;;;12.50;99.50;;;;;;5031498;28;19904;-78
2022/01/29 10:08:59;;;;;;;;;;;12.30;99.20;;;;;;5030337;28;19958;-80
2022/01/29 10:11:26;;;;;;;;;;;12.20;99.00;;;;;;5028251;28;19910;-80
2022/01/29 10:13:52;;;;;;;;;;;12.40;99.20;;;;;;5030558;28;19909;-77
2022/01/29 10:16:23;;;;;;;;;;;12.90;99.60;;;;;;5031360;28;19909;-80
2022/01/29 10:19:07;;;;;;;;;;;13.60;99.50;;;;;;5030839;28;19912;-79
2022/01/29 10:21:34;;;;;;;;;;;14.30;97.50;;;;;;5032029;28;19909;-78
2022/01/29 10:24:02;;;;;;;;;;;14.90;97.30;;;;;;5032466;28;19965;-79
2022/01/29 10:26:29;;;;;;;;;;;15.20;97.00;;;;;;5031638;28;20309;-79
2022/01/29 10:28:56;;;;;;;;;;;15.50;97.00;;;;;;5012471;28;19921;-81
2022/01/29 10:31:22;;;;;;;;;;;16.00;97.10;;;;;;5029432;28;20240;-79
2022/01/29 10:33:47;;;;;;;;;;;16.40;96.00;;;;;;5030820;28;19913;-78
2022/01/29 10:36:17;;;;;;;;;;;16.60;95.90;;;;;;5028872;28;20618;-80
2022/01/29 10:38:43;;;;;;;;;;;17.00;96.10;;;;;;5029128;28;19914;-80
2022/01/29 10:41:31;;;;;;;;;;;17.30;95.20;;;;;;5029160;28;19905;-79
2022/01/29 10:44:10;;;;;;;;;;;17.50;94.50;;;;;;5008518;28;19910;-79
2022/01/29 10:54:41;;;;;;;;;;;18.10;93.00;;;;;;4826480;22;20067;-77
2022/01/29 10:57:12;;;;;;;;;;;18.30;93.20;;;;;;5048020;28;19909;-78
2022/01/29 10:59:45;;;;;;;;;;;18.40;92.90;;;;;;5048909;28;19908;-75
2022/01/29 11:02:11;;;;;;;;;;;18.40;91.80;;;;;;5049649;28;19950;-79
2022/01/29 11:04:37;;;;;;;;;;;17.90;91.40;;;;;;5066553;28;20008;-79
2022/01/29 11:07:07;;;;;;;;;;;17.30;91.30;;;;;;5065987;28;19912;-77
2022/01/29 11:09:33;;;;;;;;;;;17.20;91.90;;;;;;5066888;28;19946;-73
2022/01/29 11:12:02;;;;;;;;;;;17.30;91.40;;;;;;5066710;28;19908;-74
2022/01/29 11:14:28;;;;;;;;;;;17.50;91.70;;;;;;5067530;28;19909;-77
2022/01/29 11:16:53;;;;;;;;;;;17.70;91.80;;;;;;5067993;28;20489;-80
2022/01/29 11:19:19;;;;;;;;;;;17.90;91.00;;;;;;5069190;28;19912;-77
2022/01/29 11:21:46;;;;;;;;;;;18.00;90.90;;;;;;5068027;28;19921;-76
2022/01/29 11:24:12;;;;;;;;;;;17.90;90.50;;;;;;5066912;28;19915;-73
2022/01/29 11:26:39;;;;;;;;;;;17.90;90.00;;;;;;5068467;28;19908;-76
2022/01/29 11:29:24;;;;;;;;;;;18.00;89.40;;;;;;5069039;28;19939;-79
2022/01/29 11:32:08;;;;;;;;;;;17.90;89.00;;;;;;5069013;28;20250;-79
2022/01/29 11:34:33;;;;;;;;;;;17.40;87.40;;;;;;5069285;28;20322;-77
2022/01/29 11:37:02;;;;;;;;;;;16.80;86.60;;;;;;5068405;28;19909;-77
2022/01/29 11:39:29;;;;;;;;;;;16.30;85.20;;;;;;5068237;28;19908;-77
2022/01/29 11:42:12;;;;;;;;;;;15.60;85.20;;;;;;5067442;28;20377;-79
2022/01/29 11:44:43;;;;;;;;;;;15.20;85.20;;;;;;5069385;28;19923;-79
2022/01/29 11:47:27;;;;;;;;;;;14.80;86.20;;;;;;5069729;28;20310;-80
2022/01/29 11:50:12;;;;;;;;;;;14.60;86.20;;;;;;5068123;28;19905;-73
2022/01/29 11:52:52;;;;;;;;;;;14.40;87.10;;;;;;5066772;28;19974;-74
2022/01/29 11:55:31;;;;;;;;;;;14.30;87.80;;;;;;5067176;28;19920;-78
2022/01/29 11:58:15;;;;;;;;;;;14.30;87.80;;;;;;5067871;28;19997;-74
2022/01/29 12:00:41;;;;;;;;;;;14.20;88.20;;;;;;5059952;28;19916;-75
2022/01/29 12:03:07;;;;;;;;;;;14.40;90.00;;;;;;5047774;28;20047;-78
2022/01/29 12:05:52;;;;;;;;;;;15.20;90.70;;;;;;5027642;28;19943;-76
2022/01/29 12:08:19;;;;;;;;;;;16.10;90.70;;;;;;5048082;28;19947;-78
2022/01/29 12:10:56;;;;;;;;;;;17.00;90.20;;;;;;5045748;28;19916;-77
2022/01/29 12:13:22;;;;;;;;;;;17.70;90.00;;;;;;5045908;28;19980;-77
2022/01/29 12:15:47;;;;;;;;;;;17.80;87.30;;;;;;5046913;28;20410;-76
2022/01/29 12:18:33;;;;;;;;;;;17.80;87.10;;;;;;5048976;28;19931;-77
2022/01/29 12:20:59;;;;;;;;;;;17.70;86.70;;;;;;5051143;28;19938;-78
2022/01/29 12:23:24;;;;;;;;;;;17.40;86.50;;;;;;5051691;28;20246;-81
2022/01/29 12:25:54;;;;;;;;;;;17.10;85.90;;;;;;5051054;28;19948;-77
2022/01/29 12:28:20;;;;;;;;;;;16.70;85.00;;;;;;5051240;28;20317;-77
2022/01/29 12:30:45;;;;;;;;;;;16.20;83.60;;;;;;5050805;28;19909;-78
2022/01/29 12:33:12;;;;;;;;;;;15.80;84.20;;;;;;5051602;28;19992;-77
2022/01/29 12:35:43;;;;;;;;;;;15.50;83.30;;;;;;5051341;28;20352;-78
2022/01/29 12:38:10;;;;;;;;;;;15.20;83.80;;;;;;5052054;28;19904;-78
2022/01/29 12:40:39;;;;;;;;;;;15.20;83.10;;;;;;5051359;28;19909;-79
2022/01/29 12:43:20;;;;;;;;;;;15.20;84.30;;;;;;5051609;28;19905;-79
2022/01/29 12:45:45;;;;;;;;;;;15.30;83.20;;;;;;5049902;28;20218;-76
2022/01/29 12:48:11;;;;;;;;;;;15.30;82.50;;;;;;5051307;28;19954;-77
2022/01/29 12:50:38;;;;;;;;;;;15.40;83.20;;;;;;5052628;28;19905;-77
2022/01/29 12:53:23;;;;;;;;;;;15.40;81.70;;;;;;5051855;28;20008;-77
2022/01/29 12:56:03;;;;;;;;;;;15.20;80.20;;;;;;5050185;28;19921;-79
2022/01/29 12:58:30;;;;;;;;;;;14.80;79.60;;;;;;5050706;28;19905;-77
2022/01/29 13:01:22;;;;;;;;;;;14.40;79.20;;;;;;5050485;28;19908;-79
2022/01/29 13:03:48;;;;;;;;;;;14.20;79.90;;;;;;5046651;28;20659;-78
2022/01/29 13:06:15;;;;;;;;;;;13.90;79.70;;;;;;5050697;28;19920;-79
2022/01/29 13:08:41;;;;;;;;;;;13.80;79.70;;;;;;5051687;28;19904;-78
2022/01/29 13:11:28;;;;;;;;;;;13.60;79.10;;;;;;5049759;28;20346;-78
2022/01/29 13:13:53;;;;;;;;;;;13.40;78.90;;;;;;5049768;28;20352;-76
2022/01/29 13:16:19;;;;;;;;;;;13.00;78.70;;;;;;5048763;28;20007;-77
2022/01/29 13:18:45;;;;;;;;;;;12.90;78.80;;;;;;5048338;28;20269;-75
2022/01/29 13:21:11;;;;;;;;;;;12.70;79.20;;;;;;5048693;28;20266;-76
2022/01/29 13:23:37;;;;;;;;;;;12.70;79.90;;;;;;5047330;28;20391;-75
2022/01/29 13:26:19;;;;;;;;;;;12.70;80.40;;;;;;5047814;28;19915;-75
2022/01/29 13:28:48;;;;;;;;;;;12.70;80.90;;;;;;5042004;28;19905;-77
2022/01/29 13:31:13;;;;;;;;;;;12.70;81.20;;;;;;5049069;28;19904;-77
2022/01/29 13:33:39;;;;;;;;;;;12.70;81.80;;;;;;5049822;28;20273;-76
2022/01/29 13:36:05;;;;;;;;;;;12.90;82.90;;;;;;5048132;28;19905;-76
2022/01/29 13:38:38;;;;;;;;;;;13.20;83.40;;;;;;5049715;28;19909;-75
2022/01/29 13:41:04;;;;;;;;;;;13.40;82.70;;;;;;5048802;28;19999;-76
2022/01/29 13:43:29;;;;;;;;;;;13.50;81.60;;;;;;5049462;28;20390;-75
2022/01/29 13:46:03;;;;;;;;;;;13.60;81.90;;;;;;5048579;28;19927;-77
2022/01/29 13:48:42;;;;;;;;;;;13.70;82.00;;;;;;5049815;28;19905;-76
2022/01/29 13:51:08;;;;;;;;;;;13.80;81.40;;;;;;5049671;28;19932;-77
2022/01/29 13:53:45;;;;;;;;;;;13.80;80.90;;;;;;5047733;28;19959;-78
2022/01/29 13:56:12;;;;;;;;;;;13.80;80.80;;;;;;5048322;28;20429;-76
2022/01/29 13:58:43;;;;;;;;;;;13.80;81.00;;;;;;5048054;28;19913;-76
2022/01/29 14:01:09;;;;;;;;;;;13.80;79.50;;;;;;5048988;28;19962;-75
2022/01/29 14:03:45;;;;;;;;;;;13.70;79.10;;;;;;5047781;28;19970;-76
2022/01/29 14:06:39;;;;;;;;;;;13.60;79.30;;;;;;5049813;28;19905;-75
2022/01/29 14:09:12;;;;;;;;;;;13.50;79.50;;;;;;5047561;28;19927;-76
2022/01/29 14:11:51;;;;;;;;;;;13.50;79.20;;;;;;5048507;28;19905;-78
2022/01/29 14:14:16;;;;;;;;;;;13.40;78.60;;;;;;5048107;28;20378;-77
2022/01/29 14:16:42;;;;;;;;;;;13.40;79.10;;;;;;5049682;28;19948;-76
2022/01/29 14:19:16;;;;;;;;;;;13.40;79.30;;;;;;5049970;28;20329;-77
2022/01/29 14:21:42;;;;;;;;;;;13.40;78.90;;;;;;5049810;28;19944;-77
2022/01/29 14:24:07;;;;;;;;;;;13.40;79.10;;;;;;5054721;28;19923;-77
2022/01/29 14:26:33;;;;;;;;;;;13.30;79.20;;;;;;5050069;28;19928;-75
2022/01/29 14:28:58;;;;;;;;;;;13.30;79.70;;;;;;5048473;28;19999;-78
2022/01/29 14:31:24;;;;;;;;;;;13.40;80.10;;;;;;5047279;28;19916;-75
2022/01/29 14:33:50;;;;;;;;;;;13.50;80.00;;;;;;5046631;28;20350;-77
2022/01/29 14:36:15;;;;;;;;;;;13.60;79.50;;;;;;5047745;28;19915;-76
2022/01/29 14:38:50;;;;;;;;;;;13.60;78.90;;;;;;5048592;28;19912;-76
2022/01/29 14:41:29;;;;;;;;;;;;;;;;;;;;;
2022/01/29 14:43:56;;;;;;;;;;;13.40;78.40;;;;;;5048833;28;19962;-76